Time;durP1;ratioP1;P1;durP2;ratioP2;P2;SDS_P1;SDS_P2;PMS_P1;PMS_P2;Temp;Humidity;BMP_temperature;BMP_pressure;BME280_temperature;BME280_humidity;BME280_pressure;Samples;Min_cycle;Max_cycle;Signal;HPM_P1;HPM_P2
2023/04/02 00:00:34;;;;;;;33.25;22.98;;;;;;;7.43;91.13;149168.84;5024265;28;20042;-64
2023/04/02 00:03:07;;;;;;;33.85;25.08;;;;;;;7.45;91.06;149173.94;5026148;28;20029;-65
2023/04/02 00:05:49;;;;;;;34.30;24.30;;;;;;;7.33;92.38;149143.28;5025624;28;20038;-67
2023/04/02 00:08:39;;;;;;;35.67;25.42;;;;;;;7.40;92.33;149162.44;5025856;28;20042;-65
2023/04/02 00:11:06;;;;;;;39.25;26.38;;;;;;;7.43;91.99;149168.84;5025873;28;20037;-66
2023/04/02 00:13:36;;;;;;;36.97;24.63;;;;;;;7.39;91.22;149159.88;5025896;28;20187;-66
2023/04/02 00:16:05;;;;;;;34.63;24.02;;;;;;;7.55;91.40;149198.25;5025773;28;20184;-67
2023/04/02 00:18:33;;;;;;;40.58;27.13;;;;;;;7.46;90.98;149176.50;5024312;28;20049;-67
2023/04/02 00:21:09;;;;;;;36.28;25.55;;;;;;;7.60;90.65;149212.34;5026133;28;20057;-66
2023/04/02 00:23:38;;;;;;;36.08;24.73;;;;;;;7.47;91.03;149179.09;5025912;28;20072;-67
2023/04/02 00:26:20;;;;;;;36.15;24.98;;;;;;;7.57;91.33;149203.41;5025016;28;20028;-67
2023/04/02 00:28:45;;;;;;;;;;;;;;;7.52;92.01;149191.84;5037919;28;20030;-68
2023/04/02 00:31:11;;;;;;;41.58;27.00;;;;;;;7.37;92.80;149154.78;5021071;28;19916;-66
2023/04/02 00:33:37;;;;;;;36.50;24.90;;;;;;;7.36;92.40;149150.94;5025700;28;20038;-68
2023/04/02 00:36:09;;;;;;;39.38;27.23;;;;;;;7.34;92.53;149145.78;5007821;28;20028;-67
2023/04/02 00:38:35;;;;;;;38.70;25.70;;;;;;;7.36;92.82;149150.94;5024005;28;20088;-68
2023/04/02 00:41:06;;;;;;;45.15;27.40;;;;;;;7.36;92.76;149150.94;5025439;28;20025;-67
2023/04/02 00:43:35;;;;;;;39.70;26.20;;;;;;;7.47;92.32;149179.09;5025522;28;20033;-67
2023/04/02 00:46:13;;;;;;;37.67;26.33;;;;;;;7.53;91.60;149193.16;5025296;28;20452;-67
2023/04/02 00:48:49;;;;;;;40.10;27.00;;;;;;;7.30;91.70;149136.88;5023706;28;20041;-68
2023/04/02 00:51:21;;;;;;;39.45;26.40;;;;;;;7.31;92.73;149138.13;5025388;28;20037;-67
2023/04/02 00:53:49;;;;;;;39.80;26.25;;;;;;;7.53;92.55;149194.44;5025308;28;20026;-67
2023/04/02 00:56:24;;;;;;;37.13;26.00;;;;;;;7.38;92.83;149156.03;5024915;28;20034;-68
2023/04/02 00:58:52;;;;;;;43.40;26.25;;;;;;;7.42;92.38;149167.59;5024733;28;20026;-66
2023/04/02 01:01:21;;;;;;;41.05;27.08;;;;;;;7.44;92.62;149171.41;5025155;28;20041;-65
2023/04/02 01:03:57;;;;;;;43.88;26.27;;;;;;;7.47;92.32;149177.78;5024768;28;20030;-67
2023/04/02 01:06:35;;;;;;;38.33;25.70;;;;;;;7.39;92.39;149159.88;5024869;28;20038;-66
2023/04/02 01:09:34;;;;;;;40.53;24.67;;;;;;;7.40;92.96;149162.44;5005380;28;20041;-67
2023/04/02 01:12:07;;;;;;;37.95;24.92;;;;;;;7.33;93.57;149143.28;4986935;28;20084;-65
2023/04/02 01:14:50;;;;;;;40.38;26.00;;;;;;;7.31;92.69;149138.13;5007063;28;20042;-65
2023/04/02 01:17:47;;;;;;;41.92;25.27;;;;;;;7.48;92.88;149180.34;5024825;28;20024;-66
2023/04/02 01:20:37;;;;;;;43.58;25.88;;;;;;;7.58;92.56;149205.94;5024099;28;20097;-68
2023/04/02 01:23:43;;;;;;;37.10;25.38;;;;;;;7.61;92.16;149213.66;5024667;28;20314;-65
2023/04/02 01:26:15;;;;;;;38.65;24.73;;;;;;;7.45;91.97;149172.69;5024719;28;20095;-66
2023/04/02 01:29:02;;;;;;;38.65;25.27;;;;;;;7.48;92.25;149180.34;5035056;28;20239;-66
2023/04/02 01:31:29;;;;;;;45.10;26.58;;;;;;;7.46;92.19;149176.50;5035490;28;20064;-67
2023/04/02 01:33:55;;;;;;;43.33;25.63;;;;;;;7.52;91.94;149191.84;5024496;28;20387;-69
2023/04/02 01:36:45;;;;;;;44.35;25.52;;;;;;;7.48;93.11;149180.34;5024323;28;20081;-66
2023/04/02 01:39:34;;;;;;;37.95;25.27;;;;;;;7.50;91.97;149186.75;5004505;28;20038;-66
2023/04/02 01:42:23;;;;;;;41.67;24.90;;;;;;;7.59;91.42;149208.50;5004868;28;20334;-67
2023/04/02 01:44:59;;;;;;;41.25;25.52;;;;;;;7.62;91.18;149216.16;5024126;28;20100;-66
2023/04/02 01:47:28;;;;;;;38.08;24.73;;;;;;;7.66;91.52;149226.41;5022678;28;20089;-65
2023/04/02 01:50:13;;;;;;;37.45;24.60;;;;;;;7.59;91.62;149209.75;5006776;28;20042;-66
2023/04/02 01:52:42;;;;;;;42.10;26.38;;;;;;;7.66;91.58;149225.16;5024250;28;20049;-66
2023/04/02 01:55:11;;;;;;;41.63;25.50;;;;;;;7.64;91.27;149221.31;5023711;28;20071;-65
2023/04/02 01:57:42;;;;;;;38.83;24.88;;;;;;;7.74;91.28;149246.88;5024216;28;20199;-65
2023/04/02 02:00:13;;;;;;;43.85;26.60;;;;;;;7.67;91.92;149228.97;5023888;28;20064;-65
2023/04/02 02:02:40;;;;;;;38.72;24.83;;;;;;;7.67;91.55;149227.72;5023151;28;20088;-65
2023/04/02 02:05:12;;;;;;;42.13;26.13;;;;;;;7.58;91.62;149207.22;5023350;28;20037;-66
2023/04/02 02:07:39;;;;;;;42.58;24.58;;;;;;;7.62;91.98;149214.91;5024194;28;20056;-66
2023/04/02 02:10:07;;;;;;;41.55;24.67;;;;;;;7.66;90.71;149226.41;5023305;28;20092;-66
2023/04/02 02:12:32;;;;;;;37.55;24.38;;;;;;;7.76;91.05;149250.72;5023435;28;20276;-67
2023/04/02 02:14:58;;;;;;;38.65;23.20;;;;;;;7.73;91.53;149243.06;5023746;28;20021;-66
2023/04/02 02:17:33;;;;;;;39.17;24.70;;;;;;;7.55;91.96;149198.25;5023634;28;20040;-65
2023/04/02 02:20:05;;;;;;;43.88;24.45;;;;;;;7.72;91.77;149241.75;5022430;28;20029;-67
2023/04/02 02:22:37;;;;;;;39.40;23.83;;;;;;;7.66;91.90;149225.16;5022938;28;20080;-66
2023/04/02 02:25:10;;;;;;;37.17;24.90;;;;;;;7.57;91.57;149203.41;5022836;28;20037;-66
2023/04/02 02:28:09;;;;;;;41.10;23.48;;;;;;;7.68;91.50;149231.56;5024515;28;20029;-68
2023/04/02 02:30:46;;;;;;;37.03;22.92;;;;;;;7.67;91.66;149227.72;5024267;28;20029;-69
2023/04/02 02:33:25;;;;;;;37.85;22.63;;;;;;;7.53;90.66;149193.16;5003840;28;20310;-67
2023/04/02 02:36:06;;;;;;;32.85;21.83;;;;;;;7.68;91.06;149231.56;5022840;28;20045;-66
2023/04/02 02:38:47;;;;;;;34.83;21.17;;;;;;;7.51;91.43;149189.31;5022824;28;20352;-66
2023/04/02 02:41:21;;;;;;;30.10;19.75;;;;;;;7.51;91.29;149188.00;5023182;28;20033;-67
2023/04/02 02:44:01;;;;;;;34.33;21.23;;;;;;;7.62;91.86;149216.16;5022422;28;20334;-67
2023/04/02 02:46:29;;;;;;;37.08;21.20;;;;;;;7.53;91.34;149193.16;5016344;28;20358;-66
2023/04/02 02:48:57;;;;;;;33.47;20.75;;;;;;;7.56;90.87;149200.84;5019166;28;20057;-66
2023/04/02 02:51:45;;;;;;;35.15;21.90;;;;;;;7.68;90.11;149230.25;5023169;28;20022;-66
2023/04/02 02:54:13;;;;;;;38.50;22.27;;;;;;;7.50;91.10;149185.50;4985596;28;20026;-66
2023/04/02 02:56:44;;;;;;;37.40;22.05;;;;;;;7.62;91.24;149216.16;5020585;28;20318;-66
2023/04/02 02:59:13;;;;;;;34.17;22.23;;;;;;;7.72;90.00;149241.75;5022466;28;20036;-65
2023/04/02 03:01:39;;;;;;;34.78;21.40;;;;;;;7.60;90.59;149212.34;5022746;28;20248;-67
2023/04/02 03:04:05;;;;;;;34.53;21.60;;;;;;;7.52;90.89;149191.84;5022722;28;20033;-66
2023/04/02 03:06:31;;;;;;;35.92;21.92;;;;;;;7.60;90.38;149212.34;5022684;28;20068;-66
2023/04/02 03:09:51;;;;;;;36.20;20.75;;;;;;;7.68;90.39;149230.25;5002778;28;20030;-65
2023/04/02 03:12:28;;;;;;;35.72;21.58;;;;;;;7.82;90.06;149266.06;4924044;29;20055;-66
2023/04/02 03:15:23;;;;;;;34.92;20.27;;;;;;;7.69;89.13;149234.06;5021778;28;20056;-66
2023/04/02 03:18:00;;;;;;;32.42;19.85;;;;;;;7.68;90.07;149231.56;5022706;28;20029;-68
2023/04/02 03:20:51;;;;;;;34.38;20.27;;;;;;;7.70;90.21;149236.66;5022578;28;20096;-68
2023/04/02 03:23:35;;;;;;;37.95;21.73;;;;;;;7.49;89.92;149182.91;5022592;28;20044;-67
2023/04/02 03:26:07;;;;;;;33.88;20.30;;;;;;;7.48;90.01;149180.34;5034042;28;20037;-67
2023/04/02 03:33:25;;;;;;;35.47;20.60;;;;;;;7.36;90.61;149150.94;5090384;27;1471403;-65
2023/04/02 03:36:27;;;;;;;32.33;20.67;;;;;;;7.52;89.85;149191.84;5108726;28;20222;-65
2023/04/02 03:39:10;;;;;;;35.17;21.70;;;;;;;7.52;89.89;149191.84;5121119;28;20045;-64
2023/04/02 03:41:46;;;;;;;35.50;21.73;;;;;;;7.37;90.48;149154.78;5108287;28;20032;-65
2023/04/02 03:44:41;;;;;;;27.92;19.92;;;;;;;7.51;90.83;149189.31;5108474;28;20030;-66
2023/04/02 03:47:23;;;;;;;29.23;18.90;;;;;;;7.63;89.60;149218.75;5106890;28;20036;-65
2023/04/02 03:50:11;;;;;;;32.20;20.08;;;;;;;7.59;89.94;149208.50;5106823;28;20070;-67
2023/04/02 03:52:37;;;;;;;33.83;19.40;;;;;;;7.71;89.23;149239.22;5103340;28;20036;-64
2023/04/02 03:55:21;;;;;;;29.15;19.52;;;;;;;7.69;89.18;149234.06;5120890;28;20030;-64
2023/04/02 03:57:58;;;;;;;31.05;19.13;;;;;;;7.68;89.45;149231.56;5099184;28;20093;-65
2023/04/02 04:00:48;;;;;;;29.80;18.98;;;;;;;7.58;88.44;149205.94;5117665;28;20054;-65
2023/04/02 04:03:18;;;;;;;28.95;18.15;;;;;;;7.32;89.25;149140.69;5103225;28;20024;-65
2023/04/02 04:05:56;;;;;;;26.02;17.83;;;;;;;7.42;89.45;149166.28;5113462;28;20065;-66
2023/04/02 04:08:31;;;;;;;30.13;18.17;;;;;;;7.41;89.27;149165.00;5120426;28;20062;-65
2023/04/02 04:11:02;;;;;;;27.02;17.75;;;;;;;7.66;88.71;149225.16;5119453;28;20137;-65
2023/04/02 04:13:36;;;;;;;29.75;17.85;;;;;;;7.58;88.45;149205.94;5120092;28;20059;-66
2023/04/02 04:16:16;;;;;;;27.90;17.20;;;;;;;7.66;87.63;149226.41;5120530;28;20024;-66
2023/04/02 04:18:55;;;;;;;25.20;16.65;;;;;;;7.82;87.30;149264.81;5100280;28;20031;-65
2023/04/02 04:21:38;;;;;;;31.60;17.88;;;;;;;7.83;88.22;149267.38;5117362;28;20028;-66
2023/04/02 04:24:20;;;;;;;25.90;17.13;;;;;;;7.85;87.51;149272.47;5103976;28;20271;-66
2023/04/02 04:26:54;;;;;;;27.30;17.38;;;;;;;7.86;87.35;149275.03;5099667;28;20050;-65
2023/04/02 04:29:44;;;;;;;25.95;16.85;;;;;;;7.86;87.03;149276.31;5109319;28;20027;-64
2023/04/02 04:32:30;;;;;;;23.95;15.98;;;;;;;7.51;87.97;149189.31;5119623;28;20047;-64
2023/04/02 04:35:06;;;;;;;23.88;15.75;;;;;;;7.92;86.72;149290.38;5119491;28;20036;-64
2023/04/02 04:37:40;;;;;;;25.75;15.77;;;;;;;7.86;87.12;149276.31;5117300;28;20048;-64
2023/04/02 04:40:27;;;;;;;25.08;15.82;;;;;;;7.71;86.42;149237.91;5099307;28;20020;-64
2023/04/02 04:42:56;;;;;;;25.40;15.15;;;;;;;7.72;86.79;149240.47;5130987;28;20017;-65
2023/04/02 04:45:47;;;;;;;26.35;17.13;;;;;;;7.82;86.90;149266.06;5108524;28;20035;-65
2023/04/02 04:48:21;;;;;;;24.98;15.60;;;;;;;7.88;86.60;149280.16;5089024;28;20091;-66
2023/04/02 04:51:04;;;;;;;25.10;16.40;;;;;;;7.86;85.64;149275.03;5098791;28;20040;-64
2023/04/02 04:53:30;;;;;;;24.90;15.55;;;;;;;7.74;85.81;149246.88;5095446;28;20028;-65
2023/04/02 04:56:03;;;;;;;26.58;16.10;;;;;;;7.54;86.26;149197.00;5091599;28;20066;-63
2023/04/02 04:58:42;;;;;;;24.35;15.27;;;;;;;7.68;85.93;149231.56;5104011;28;20039;-64
2023/04/02 05:01:26;;;;;;;27.70;15.68;;;;;;;7.76;86.07;149250.72;5085881;28;20051;-63
2023/04/02 05:04:15;;;;;;;25.63;15.38;;;;;;;7.72;86.24;149240.47;5085851;28;20040;-64
2023/04/02 05:07:05;;;;;;;26.80;16.08;;;;;;;7.54;87.31;149195.69;5085935;28;20040;-64
2023/04/02 05:09:36;;;;;;;27.17;16.65;;;;;;;7.67;87.07;149228.97;5085825;28;20097;-64
2023/04/02 05:12:15;;;;;;;24.40;16.50;;;;;;;7.63;86.29;149217.47;5100547;28;20020;-64
2023/04/02 05:14:56;;;;;;;28.40;16.08;;;;;;;7.83;85.43;149268.63;5093809;28;20039;-64
2023/04/02 05:17:43;;;;;;;22.42;14.57;;;;;;;7.69;86.22;149234.06;5085459;28;20047;-64
2023/04/02 05:20:26;;;;;;;26.05;15.70;;;;;;;7.75;85.86;149249.47;5084444;28;20095;-65
2023/04/02 05:23:02;;;;;;;22.30;14.85;;;;;;;7.84;85.45;149269.91;5089301;28;20239;-65
2023/04/02 05:25:30;;;;;;;27.23;16.15;;;;;;;7.85;85.34;149272.47;5104033;28;20032;-63
2023/04/02 05:28:05;;;;;;;23.63;15.75;;;;;;;7.73;84.89;149244.31;5085357;28;20217;-64
2023/04/02 05:31:01;;;;;;;23.63;15.27;;;;;;;7.92;84.67;149291.69;5085190;28;20123;-63
2023/04/02 05:33:29;;;;;;;24.77;15.70;;;;;;;7.99;84.67;149307.03;5102162;28;20036;-63
2023/04/02 05:36:17;;;;;;;27.75;15.80;;;;;;;7.93;84.18;149292.97;5105672;28;20039;-64
2023/04/02 05:38:46;;;;;;;26.75;16.30;;;;;;;7.76;84.43;149250.72;5092580;28;20072;-64
2023/04/02 05:41:35;;;;;;;23.85;16.48;;;;;;;7.80;83.78;149260.97;5092601;28;20028;-63
2023/04/02 05:44:08;;;;;;;25.00;16.30;;;;;;;7.56;84.18;149200.84;5098913;28;20039;-63
2023/04/02 05:46:46;;;;;;;23.05;15.63;;;;;;;7.59;85.39;149209.75;5087605;28;20032;-64
2023/04/02 05:49:40;;;;;;;25.48;16.30;;;;;;;7.72;84.09;149240.47;5104973;28;20197;-64
2023/04/02 05:52:10;;;;;;;21.88;16.05;;;;;;;7.60;84.84;149211.06;5084978;28;20021;-65
2023/04/02 05:54:45;;;;;;;22.00;15.75;;;;;;;7.81;85.06;149263.53;5103463;28;20055;-65
2023/04/02 05:57:24;;;;;;;23.23;16.98;;;;;;;7.66;84.45;149225.16;5089202;28;20032;-64
2023/04/02 05:59:56;;;;;;;23.17;16.05;;;;;;;7.86;83.04;149276.31;5084583;28;20032;-65
2023/04/02 06:02:35;;;;;;;25.27;16.42;;;;;;;7.86;83.44;149276.31;5093736;28;20087;-65
2023/04/02 06:05:11;;;;;;;26.15;16.92;;;;;;;7.65;83.90;149223.84;5098978;28;20027;-65
2023/04/02 06:07:45;;;;;;;25.63;17.38;;;;;;;7.72;83.68;149241.75;5087407;28;20028;-65
2023/04/02 06:10:18;;;;;;;24.42;17.75;;;;;;;7.83;83.85;149268.63;5104764;28;20036;-65
2023/04/02 06:12:49;;;;;;;23.33;17.05;;;;;;;7.77;83.82;149254.56;5104442;28;20024;-65
2023/04/02 06:15:17;;;;;;;;;;;;;;;7.94;85.01;149296.78;5088394;28;20087;-64
2023/04/02 06:17:47;;;;;;;22.52;18.02;;;;;;;7.82;84.03;149264.81;5083759;28;19927;-64
2023/04/02 06:20:17;;;;;;;23.00;17.35;;;;;;;7.75;83.27;149248.16;5091728;28;20091;-65
2023/04/02 06:22:47;;;;;;;26.00;17.20;;;;;;;7.72;84.31;149241.75;5099883;28;20231;-65
2023/04/02 06:25:21;;;;;;;25.60;17.85;;;;;;;7.74;84.04;149245.63;5084368;28;20032;-64
2023/04/02 06:27:49;;;;;;;22.27;16.23;;;;;;;7.98;83.28;149304.47;5084274;28;20024;-66
2023/04/02 06:30:32;;;;;;;25.25;18.08;;;;;;;8.11;83.00;149337.78;5099063;28;20320;-67
2023/04/02 06:32:57;;;;;;;22.17;16.90;;;;;;;8.07;83.23;149328.78;5085516;28;20040;-66
2023/04/02 06:35:23;;;;;;;25.60;16.23;;;;;;;8.04;82.69;149319.84;5124768;28;20331;-66
2023/04/02 06:37:56;;;;;;;23.10;17.25;;;;;;;7.98;83.27;149304.47;5116360;28;20051;-65
2023/04/02 06:40:27;;;;;;;26.85;18.30;;;;;;;8.19;81.62;149356.94;5085697;28;20029;-67
2023/04/02 06:42:58;;;;;;;24.52;17.50;;;;;;;8.26;81.51;149374.88;5092854;28;20050;-64
2023/04/02 06:45:31;;;;;;;26.30;18.13;;;;;;;8.09;81.69;149333.94;5083577;28;20051;-65
2023/04/02 06:48:00;;;;;;;22.98;17.70;;;;;;;8.14;81.80;149345.44;5090046;28;20060;-66
2023/04/02 06:50:43;;;;;;;26.52;17.50;;;;;;;8.21;80.96;149362.06;5094466;28;20036;-66
2023/04/02 06:53:26;;;;;;;23.42;16.55;;;;;;;8.37;80.87;149401.78;5094404;28;20027;-65
2023/04/02 06:55:59;;;;;;;23.08;17.15;;;;;;;8.40;80.78;149410.72;5092771;28;20026;-64
2023/04/02 06:58:25;;;;;;;26.00;17.17;;;;;;;8.43;80.57;149417.13;5096893;28;20104;-64
2023/04/02 07:00:51;;;;;;;21.45;15.52;;;;;;;8.13;80.05;149342.88;5089518;28;20201;-63
2023/04/02 07:03:29;;;;;;;23.05;16.60;;;;;;;8.35;79.50;149396.63;5090520;28;20205;-63
2023/04/02 07:05:55;;;;;;;26.63;16.85;;;;;;;8.40;79.08;149410.72;5088879;28;20091;-65
2023/04/02 07:08:22;;;;;;;25.35;16.38;;;;;;;8.45;79.25;149423.59;5093030;28;20036;-65
2023/04/02 07:10:48;;;;;;;22.88;16.10;;;;;;;8.57;78.86;149451.75;5091225;28;20304;-64
2023/04/02 07:13:22;;;;;;;21.40;16.70;;;;;;;8.40;78.32;149410.72;5093142;28;20027;-66
2023/04/02 07:15:51;;;;;;;23.77;15.77;;;;;;;8.39;79.19;149408.13;5094312;28;20042;-65
2023/04/02 07:18:31;;;;;;;19.85;16.45;;;;;;;8.45;78.33;149423.59;5087704;28;20054;-64
2023/04/02 07:20:58;;;;;;;19.45;14.48;;;;;;;8.33;77.30;149392.78;5083441;28;20043;-65
2023/04/02 07:23:24;;;;;;;21.25;15.90;;;;;;;8.55;78.03;149446.59;5091724;28;20220;-65
2023/04/02 07:25:53;;;;;;;19.90;14.90;;;;;;;8.58;77.11;149454.28;5098627;28;20244;-64
2023/04/02 07:28:19;;;;;;;22.38;15.10;;;;;;;8.62;76.73;149464.53;5094095;28;20039;-63
2023/04/02 07:30:45;;;;;;;22.35;15.80;;;;;;;8.62;76.74;149465.84;5084753;28;20028;-63
2023/04/02 07:33:16;;;;;;;21.60;15.68;;;;;;;8.67;76.80;149476.09;5090204;28;20387;-64
2023/04/02 07:35:42;;;;;;;21.25;15.30;;;;;;;8.64;77.12;149470.94;5092936;28;20034;-64
2023/04/02 07:38:08;;;;;;;18.40;14.57;;;;;;;8.58;76.65;149454.28;5092915;28;20027;-64
2023/04/02 07:40:34;;;;;;;23.75;16.08;;;;;;;8.73;76.97;149492.69;5091246;28;20084;-63
2023/04/02 07:42:59;;;;;;;21.13;15.80;;;;;;;8.54;76.76;149444.06;5092750;28;20220;-64
2023/04/02 07:45:26;;;;;;;20.52;14.73;;;;;;;8.54;76.38;149445.34;5096392;28;20024;-68
2023/04/02 07:47:52;;;;;;;21.52;14.57;;;;;;;8.60;76.86;149460.69;5066771;28;20063;-65
2023/04/02 07:50:18;;;;;;;20.48;15.73;;;;;;;8.42;76.63;149415.84;5090297;28;20044;-65
2023/04/02 07:52:44;;;;;;;21.42;15.88;;;;;;;8.26;78.08;149374.88;5100390;28;20095;-65
2023/04/02 07:55:12;;;;;;;23.88;16.35;;;;;;;8.30;77.46;149386.38;5083048;28;20032;-65
2023/04/02 07:57:40;;;;;;;23.08;16.70;;;;;;;8.29;77.14;149382.53;5101639;28;20028;-65
2023/04/02 08:00:10;;;;;;;21.23;16.05;;;;;;;8.35;77.35;149397.94;5089030;28;20131;-66
2023/04/02 08:02:36;;;;;;;22.65;16.88;;;;;;;8.43;77.76;149418.38;5093285;28;20036;-67
2023/04/02 08:05:02;;;;;;;22.45;16.80;;;;;;;8.44;77.05;149421.00;5102832;28;20059;-65
2023/04/02 08:07:28;;;;;;;24.13;17.40;;;;;;;8.54;76.46;149444.06;5103131;28;20028;-65
2023/04/02 08:09:53;;;;;;;28.42;17.65;;;;;;;8.30;77.05;149385.13;5095366;28;20036;-66
2023/04/02 08:12:19;;;;;;;24.48;18.13;;;;;;;8.33;77.58;149391.53;5086066;28;20032;-66
2023/04/02 08:14:45;;;;;;;25.80;17.40;;;;;;;8.29;77.24;149383.84;5082865;28;20341;-66
2023/04/02 08:17:10;;;;;;;26.45;18.33;;;;;;;8.36;77.51;149400.47;5089193;28;20035;-65
2023/04/02 08:19:36;;;;;;;25.48;18.75;;;;;;;8.54;78.33;149445.34;5106285;28;20031;-67
2023/04/02 08:22:02;;;;;;;28.27;17.95;;;;;;;8.68;76.70;149479.94;5106946;28;20081;-68
2023/04/02 08:24:27;;;;;;;27.02;18.95;;;;;;;8.51;77.61;149436.34;5088935;28;20054;-66
2023/04/02 08:26:53;;;;;;;25.92;18.67;;;;;;;8.46;77.96;149426.16;5085384;28;20028;-65
2023/04/02 08:29:20;;;;;;;24.55;19.33;;;;;;;8.42;78.74;149415.84;5096627;28;20035;-65
2023/04/02 08:31:45;;;;;;;25.67;19.17;;;;;;;8.56;76.87;149449.19;5097898;28;20036;-67
2023/04/02 08:34:11;;;;;;;27.55;18.98;;;;;;;8.38;78.01;149404.31;5105109;28;20035;-64
2023/04/02 08:36:40;;;;;;;27.73;18.67;;;;;;;8.38;78.00;149405.63;5104960;28;20036;-65
2023/04/02 08:39:10;;;;;;;28.75;17.67;;;;;;;8.37;78.76;149403.03;5091333;28;20186;-66
2023/04/02 08:42:03;;;;;;;32.30;19.02;;;;;;;8.59;78.44;149458.16;5092521;28;20313;-67
2023/04/02 08:44:52;;;;;;;27.90;18.58;;;;;;;8.69;77.89;149482.44;5086391;28;20262;-65
2023/04/02 08:47:19;;;;;;;27.45;20.08;;;;;;;8.35;78.14;149397.94;5071329;28;20023;-67
2023/04/02 08:49:56;;;;;;;30.63;18.42;;;;;;;8.35;78.42;149396.63;5104183;28;20028;-67
2023/04/02 08:52:30;;;;;;;26.40;19.60;;;;;;;8.58;77.69;149454.28;5085566;28;20036;-67
2023/04/02 08:54:59;;;;;;;26.75;18.95;;;;;;;8.48;78.57;149430.00;5085864;28;20084;-67
2023/04/02 08:57:30;;;;;;;25.77;18.85;;;;;;;8.56;78.09;149449.19;5091301;28;20031;-67
2023/04/02 09:00:14;;;;;;;27.77;19.75;;;;;;;8.67;77.54;149476.09;5094717;28;20032;-67
2023/04/02 09:02:53;;;;;;;30.35;20.63;;;;;;;8.41;77.94;149412.03;5085966;28;20101;-65
2023/04/02 09:05:27;;;;;;;27.90;19.42;;;;;;;8.58;78.15;149454.28;5091358;28;20024;-65
2023/04/02 09:07:57;;;;;;;27.60;19.38;;;;;;;8.21;78.52;149362.06;5079467;28;20054;-65
2023/04/02 09:10:37;;;;;;;29.88;21.13;;;;;;;8.40;78.62;149409.44;5095164;28;20324;-66
2023/04/02 09:13:15;;;;;;;25.13;20.65;;;;;;;8.37;79.05;149403.03;5070585;28;20229;-65
2023/04/02 09:15:41;;;;;;;25.33;19.55;;;;;;;8.43;78.97;149418.38;5094313;28;20027;-65
2023/04/02 09:18:15;;;;;;;27.77;19.88;;;;;;;8.23;79.24;149367.19;5095813;28;20040;-66
2023/04/02 09:20:42;;;;;;;27.25;19.67;;;;;;;8.42;79.10;149414.53;5096071;28;20046;-66
2023/04/02 09:23:18;;;;;;;29.02;20.02;;;;;;;8.41;79.53;149413.28;5076270;28;20020;-69
2023/04/02 09:25:47;;;;;;;27.50;18.70;;;;;;;8.42;79.68;149414.53;5095344;28;20040;-68
2023/04/02 09:28:14;;;;;;;26.45;19.15;;;;;;;8.59;79.41;149458.16;5093821;28;20091;-68
2023/04/02 09:31:15;;;;;;;27.42;19.25;;;;;;;8.72;78.22;149490.19;5095837;28;20019;-69
2023/04/02 09:33:47;;;;;;;26.60;17.52;;;;;;;8.40;79.60;149409.44;5100792;28;20126;-67
2023/04/02 09:36:36;;;;;;;26.98;17.95;;;;;;;8.58;78.34;149454.28;5094782;28;20298;-67
2023/04/02 09:39:21;;;;;;;23.33;17.02;;;;;;;8.75;77.77;149496.53;5095277;28;20055;-67
2023/04/02 09:41:47;;;;;;;21.45;16.98;;;;;;;8.66;78.05;149473.50;5095143;28;20032;-66
2023/04/02 09:44:25;;;;;;;20.75;16.15;;;;;;;8.74;78.66;149494.00;5092151;28;20023;-68
2023/04/02 09:46:58;;;;;;;24.00;15.68;;;;;;;8.37;79.18;149403.03;5093651;28;20031;-66
2023/04/02 09:49:33;;;;;;;21.88;16.75;;;;;;;8.53;78.87;149441.50;5094068;28;20030;-67
2023/04/02 09:52:16;;;;;;;24.30;17.08;;;;;;;8.81;78.32;149513.19;5093835;28;20024;-67
2023/04/02 09:54:42;;;;;;;20.85;16.60;;;;;;;8.67;78.71;149476.09;5092305;28;20047;-66
2023/04/02 09:57:19;;;;;;;24.23;16.98;;;;;;;8.48;79.52;149428.69;5087062;28;20086;-67
2023/04/02 09:59:45;;;;;;;22.33;16.45;;;;;;;8.60;78.99;149459.44;5094443;28;20039;-68
2023/04/02 10:02:31;;;;;;;22.55;16.73;;;;;;;8.87;78.46;149526.03;5099367;28;20031;-68
2023/04/02 10:05:03;;;;;;;22.20;16.45;;;;;;;8.89;78.40;149531.13;5089934;28;20063;-68
2023/04/02 10:07:37;;;;;;;25.67;16.63;;;;;;;8.66;78.30;149474.78;5107172;28;20032;-67
2023/04/02 10:10:20;;;;;;;26.00;16.38;;;;;;;8.85;78.81;149520.88;5069901;28;20316;-66
2023/04/02 10:13:22;;;;;;;21.95;16.13;;;;;;;8.88;78.94;149529.88;5085031;28;20036;-67
2023/04/02 10:16:15;;;;;;;17.47;15.40;;;;;;;9.01;78.02;149561.88;5104265;28;20028;-66
2023/04/02 10:18:48;;;;;;;24.25;15.88;;;;;;;9.03;77.85;149567.00;5083680;28;20032;-68
2023/04/02 10:21:22;;;;;;;23.50;16.65;;;;;;;8.97;79.01;149552.91;5094736;28;20079;-67
2023/04/02 10:23:48;;;;;;;29.25;19.65;;;;;;;8.87;78.37;149526.03;5072384;28;20212;-66
2023/04/02 10:26:19;;;;;;;20.98;14.93;;;;;;;9.04;78.61;149568.31;5093541;28;20043;-67
2023/04/02 10:29:03;;;;;;;20.85;14.95;;;;;;;8.98;78.63;149554.22;5101402;28;20042;-68
2023/04/02 10:31:46;;;;;;;20.58;15.15;;;;;;;9.08;78.79;149578.56;5087403;28;20020;-66
2023/04/02 10:34:28;;;;;;;20.38;14.57;;;;;;;9.05;77.44;149572.13;5095471;28;20043;-65
2023/04/02 10:36:56;;;;;;;;;;;;;;;8.88;78.42;149528.56;5103811;28;20039;-66
2023/04/02 10:39:39;;;;;;;18.95;13.85;;;;;;;9.22;77.71;149613.09;5097579;28;19915;-67
2023/04/02 10:42:08;;;;;;;19.58;14.00;;;;;;;9.31;77.60;149636.19;5095473;28;20252;-65
2023/04/02 10:44:58;;;;;;;22.02;15.13;;;;;;;9.48;76.41;149679.75;5083484;28;20174;-67
2023/04/02 10:47:45;;;;;;;20.13;14.85;;;;;;;9.46;76.54;149674.63;5089811;28;20040;-67
2023/04/02 10:50:28;;;;;;;20.60;14.80;;;;;;;9.48;76.04;149678.47;5098853;28;20032;-67
2023/04/02 10:52:59;;;;;;;18.67;14.10;;;;;;;9.82;75.66;149764.31;5069184;28;20047;-69
2023/04/02 10:55:32;;;;;;;20.40;13.90;;;;;;;9.93;75.44;149789.94;5094131;28;20036;-67
2023/04/02 10:58:06;;;;;;;19.50;13.77;;;;;;;9.74;75.44;149742.53;5092242;28;20067;-65
2023/04/02 11:00:38;;;;;;;22.10;14.38;;;;;;;9.56;75.19;149698.94;5088123;28;20020;-68
2023/04/02 11:03:13;;;;;;;21.70;14.38;;;;;;;9.97;75.67;149800.22;5097874;28;20036;-67
2023/04/02 11:05:46;;;;;;;21.90;14.35;;;;;;;9.82;75.63;149763.06;5083776;28;20202;-68
2023/04/02 11:08:33;;;;;;;24.05;14.15;;;;;;;10.04;74.74;149818.16;5093224;28;20308;-68
2023/04/02 11:11:13;;;;;;;21.63;14.07;;;;;;;10.19;74.82;149855.34;5069944;28;20056;-67
2023/04/02 11:13:51;;;;;;;20.98;14.32;;;;;;;10.29;73.97;149879.66;5077453;28;20020;-66
2023/04/02 11:16:17;;;;;;;22.52;15.55;;;;;;;10.34;73.47;149893.81;5090858;28;20032;-66
2023/04/02 11:19:20;;;;;;;23.13;15.18;;;;;;;10.43;73.75;149914.34;5085074;28;20029;-68
2023/04/02 11:21:55;;;;;;;21.52;14.93;;;;;;;10.34;73.72;149892.56;5100518;28;20039;-66
2023/04/02 11:24:30;;;;;;;21.17;15.55;;;;;;;10.13;74.30;149841.25;5093970;28;20043;-68
2023/04/02 11:27:11;;;;;;;19.60;13.90;;;;;;;10.31;74.10;149884.81;5094149;28;20309;-67
2023/04/02 11:30:15;;;;;;;18.38;13.82;;;;;;;10.15;74.07;149846.34;5095068;28;20051;-68
2023/04/02 11:32:48;;;;;;;21.77;13.82;;;;;;;10.17;74.15;149851.47;5069397;28;20040;-67
2023/04/02 11:35:29;;;;;;;23.10;12.35;;;;;;;9.53;75.12;149691.25;5081863;28;20105;-66
2023/04/02 11:38:17;;;;;;;26.43;14.97;;;;;;;9.71;75.62;149734.88;5085651;28;20044;-70
2023/04/02 11:40:55;;;;;;;23.25;14.90;;;;;;;9.84;75.08;149769.44;5052181;28;20052;-69
2023/04/02 11:43:34;;;;;;;21.83;14.55;;;;;;;10.14;74.55;149842.50;5085203;28;20048;-69
2023/04/02 11:46:28;;;;;;;21.90;14.45;;;;;;;10.35;74.21;149896.41;5103448;28;20081;-68
2023/04/02 11:49:32;;;;;;;21.48;13.88;;;;;;;10.31;73.37;149886.09;5082850;28;20098;-69
2023/04/02 11:51:58;;;;;;;24.55;14.70;;;;;;;10.41;73.70;149910.50;5082574;28;20044;-68
2023/04/02 11:54:28;;;;;;;19.98;13.45;;;;;;;10.34;73.20;149893.81;5098867;28;20035;-69
2023/04/02 11:57:09;;;;;;;20.42;13.90;;;;;;;10.39;73.62;149905.41;5096023;28;20032;-67
2023/04/02 12:00:04;;;;;;;19.45;14.10;;;;;;;10.01;74.58;149810.47;5094327;28;20035;-67